createdAt,value
2019-05-01T00:00:20.534Z,9.05
2019-05-01T00:03:07.399Z,9.03
2019-05-01T00:05:49.513Z,9.02
2019-05-01T00:08:18.077Z,8.98
2019-05-01T00:10:46.494Z,8.96
2019-05-01T00:13:15.563Z,8.94
2019-05-01T00:15:44.734Z,8.92
2019-05-01T00:18:13.319Z,8.90
2019-05-01T00:20:41.857Z,8.86
2019-05-01T00:23:10.487Z,8.82
2019-05-01T00:25:40.573Z,8.79
2019-05-01T00:28:09.829Z,8.77
2019-05-01T00:30:38.385Z,8.75
2019-05-01T00:33:06.845Z,8.75
2019-05-01T00:35:35.304Z,8.71
2019-05-01T00:38:03.855Z,8.69
2019-05-01T00:40:32.397Z,8.65
2019-05-01T00:43:00.791Z,8.58
2019-05-01T00:45:29.220Z,8.54
2019-05-01T00:47:57.617Z,8.53
2019-05-01T00:50:26.100Z,8.48
2019-05-01T00:52:54.623Z,8.45
2019-05-01T00:55:39.775Z,8.43
2019-05-01T00:58:26.272Z,8.40
2019-05-01T01:00:56.331Z,8.39
2019-05-01T01:03:24.898Z,8.34
2019-05-01T01:05:53.777Z,8.31
2019-05-01T01:08:22.174Z,8.26
2019-05-01T01:10:50.573Z,8.20
2019-05-01T01:13:20.019Z,8.17
2019-05-01T01:15:48.421Z,8.16
2019-05-01T01:18:16.825Z,8.15
2019-05-01T01:20:45.426Z,8.14
2019-05-01T01:23:13.979Z,8.13
2019-05-01T01:25:42.360Z,8.13
2019-05-01T01:28:11.332Z,8.13
2019-05-01T01:30:39.853Z,8.12
2019-05-01T01:33:08.421Z,8.10
2019-05-01T01:35:36.843Z,8.11
2019-05-01T01:38:05.243Z,8.12
2019-05-01T01:40:34.773Z,8.12
2019-05-01T01:43:21.467Z,8.12
2019-05-01T01:45:54.330Z,8.11
2019-05-01T01:48:22.968Z,8.09
2019-05-01T01:50:51.660Z,8.07
2019-05-01T01:53:22.093Z,8.06
2019-05-01T01:55:51.140Z,8.06
2019-05-01T01:58:21.605Z,8.06
2019-05-01T02:01:09.835Z,8.05
2019-05-01T02:03:45.866Z,8.04
2019-05-01T02:06:14.403Z,8.02
2019-05-01T02:08:55.462Z,8.01
2019-05-01T02:11:14.007Z,8.03
2019-05-01T02:13:42.849Z,8.01
2019-05-01T02:16:11.325Z,8.02
2019-05-01T02:18:39.883Z,8.01
2019-05-01T02:21:08.392Z,8.00
2019-05-01T02:23:36.793Z,7.98
2019-05-01T02:26:06.289Z,7.97
2019-05-01T02:28:39.858Z,7.95
2019-05-01T02:31:27.874Z,7.95
2019-05-01T02:33:56.872Z,7.93
2019-05-01T02:36:27.618Z,7.90
2019-05-01T02:38:57.840Z,7.90
2019-05-01T02:41:29.284Z,7.87
2019-05-01T02:44:00.864Z,7.84
2019-05-01T02:46:32.155Z,7.82
2019-05-01T02:49:15.623Z,7.81
2019-05-01T02:51:45.190Z,7.78
2019-05-01T02:54:16.671Z,7.74
2019-05-01T02:56:48.956Z,7.72
2019-05-01T02:59:18.495Z,7.71
2019-05-01T03:01:48.172Z,7.69
2019-05-01T03:04:16.894Z,7.70
2019-05-01T03:06:47.044Z,7.69
2019-05-01T03:09:16.474Z,7.68
2019-05-01T03:11:47.447Z,7.66
2019-05-01T03:14:18.564Z,7.66
2019-05-01T03:16:48.387Z,7.66
2019-05-01T03:19:35.930Z,7.65
2019-05-01T03:22:12.632Z,7.61
2019-05-01T03:24:41.193Z,7.58
2019-05-01T03:27:09.776Z,7.56
2019-05-01T03:29:38.376Z,7.54
2019-05-01T03:32:18.855Z,7.53
2019-05-01T03:34:37.400Z,7.48
2019-05-01T03:37:05.789Z,7.45
2019-05-01T03:39:34.647Z,7.41
2019-05-01T03:42:03.322Z,7.39
2019-05-01T03:44:31.887Z,7.39
2019-05-01T03:47:00.604Z,7.36
2019-05-01T03:49:29.011Z,7.30
2019-05-01T03:51:58.171Z,7.26
2019-05-01T03:54:26.767Z,7.26
2019-05-01T03:56:55.441Z,7.26
2019-05-01T03:59:24.586Z,7.29
2019-05-01T04:01:58.381Z,7.31
2019-05-01T04:04:29.242Z,7.32
2019-05-01T04:06:57.595Z,7.29
2019-05-01T04:09:26.453Z,7.28
2019-05-01T04:11:55.008Z,7.30
2019-05-01T04:14:23.582Z,7.30
2019-05-01T04:16:53.979Z,7.29
2019-05-01T04:19:22.525Z,7.29
2019-05-01T04:21:52.937Z,7.29
2019-05-01T04:24:21.642Z,7.31
2019-05-01T04:26:50.384Z,7.32
2019-05-01T04:29:23.213Z,7.30
2019-05-01T04:31:54.119Z,7.26
2019-05-01T04:34:26.827Z,7.26
2019-05-01T04:37:00.488Z,7.26
2019-05-01T04:39:29.342Z,7.25
2019-05-01T04:41:58.155Z,7.24
2019-05-01T04:44:27.421Z,7.25
2019-05-01T04:46:55.956Z,7.25
2019-05-01T04:49:24.500Z,7.26
2019-05-01T04:51:53.160Z,7.26
2019-05-01T04:54:22.167Z,7.25
2019-05-01T04:56:50.907Z,7.27
2019-05-01T04:59:19.704Z,7.29
2019-05-01T05:01:59.471Z,7.32
2019-05-01T05:04:29.852Z,7.33
2019-05-01T05:06:58.583Z,7.36
2019-05-01T05:09:43.665Z,7.39
2019-05-01T05:12:19.780Z,7.42
2019-05-01T05:15:02.225Z,7.46
2019-05-01T05:17:30.907Z,7.47
2019-05-01T05:19:59.650Z,7.54
2019-05-01T05:22:28.516Z,7.56
2019-05-01T05:24:56.986Z,7.58
2019-05-01T05:27:25.729Z,7.62
2019-05-01T05:29:57.407Z,7.67
2019-05-01T05:32:28.876Z,7.74
2019-05-01T05:34:59.286Z,7.76
2019-05-01T05:37:31.402Z,7.78
2019-05-01T05:40:01.431Z,7.82
2019-05-01T05:42:30.777Z,7.85
2019-05-01T05:44:59.709Z,7.87
2019-05-01T05:47:28.103Z,7.92
2019-05-01T05:49:56.669Z,7.98
2019-05-01T05:52:27.768Z,8.05
2019-05-01T05:54:59.944Z,8.14
2019-05-01T05:57:42.240Z,8.18
2019-05-01T06:00:27.508Z,8.23
2019-05-01T06:03:12.012Z,8.26
2019-05-01T06:05:45.108Z,8.31
2019-05-01T06:08:18.444Z,8.34
2019-05-01T06:10:58.493Z,8.41
2019-05-01T06:13:52.628Z,8.50
2019-05-01T06:16:36.269Z,8.58
2019-05-01T06:19:21.794Z,8.66
2019-05-01T06:22:10.310Z,8.72
2019-05-01T06:24:44.638Z,8.80
2019-05-01T06:27:14.887Z,8.86
2019-05-01T06:29:44.199Z,8.90
2019-05-01T06:32:12.788Z,8.97
2019-05-01T06:34:41.635Z,9.05
2019-05-01T06:37:10.034Z,9.11
2019-05-01T06:39:42.770Z,9.17
2019-05-01T06:42:15.118Z,9.22
2019-05-01T06:44:59.070Z,9.28
2019-05-01T06:47:43.044Z,9.34
2019-05-01T06:50:13.405Z,9.39
2019-05-01T06:52:42.514Z,9.47
2019-05-01T06:55:11.364Z,9.55
2019-05-01T06:57:43.671Z,9.64
2019-05-01T07:00:12.884Z,9.69
2019-05-01T07:02:42.228Z,9.73
2019-05-01T07:05:14.859Z,9.80
2019-05-01T07:07:48.298Z,9.86
2019-05-01T07:10:14.675Z,9.93
2019-05-01T07:12:43.460Z,10.00
2019-05-01T07:15:12.130Z,10.08
2019-05-01T07:17:43.937Z,10.17
2019-05-01T07:20:25.470Z,10.22
2019-05-01T07:22:52.895Z,10.29
2019-05-01T07:25:21.444Z,10.31
2019-05-01T07:27:53.910Z,10.34
2019-05-01T07:30:25.267Z,10.44
2019-05-01T07:32:53.833Z,10.57
2019-05-01T07:35:22.711Z,10.64
2019-05-01T07:37:51.546Z,10.69
2019-05-01T07:40:29.041Z,10.74
2019-05-01T07:42:56.751Z,10.86
2019-05-01T07:45:27.280Z,10.96
2019-05-01T07:48:01.131Z,11.03
2019-05-01T07:50:31.504Z,11.11
2019-05-01T07:52:58.515Z,11.22
2019-05-01T07:55:36.281Z,11.32
2019-05-01T07:58:10.323Z,11.39
2019-05-01T08:01:18.298Z,11.48
2019-05-01T08:03:46.178Z,11.56
2019-05-01T08:06:16.224Z,11.66
2019-05-01T08:08:44.795Z,11.74
2019-05-01T08:11:13.204Z,11.83
2019-05-01T08:13:41.620Z,11.91
2019-05-01T08:19:04.098Z,12.03
2019-05-01T08:21:52.478Z,12.08
2019-05-01T08:24:22.904Z,12.18
2019-05-01T08:26:51.078Z,12.26
2019-05-01T08:32:38.927Z,12.46
2019-05-01T08:35:44.122Z,12.57
2019-05-01T08:38:12.624Z,12.68
2019-05-01T08:41:00.348Z,12.86
2019-05-01T08:43:28.778Z,13.01
2019-05-01T08:46:17.664Z,13.19
2019-05-01T08:53:57.951Z,13.49
2019-05-01T08:59:00.199Z,13.72
2019-05-01T09:01:28.678Z,13.79
2019-05-01T09:03:57.076Z,13.84
2019-05-01T09:06:34.540Z,13.93
2019-05-01T09:08:55.684Z,14.02
2019-05-01T09:14:35.138Z,14.02
2019-05-01T09:17:02.285Z,14.02
2019-05-01T09:19:30.684Z,14.07
2019-05-01T09:27:32.148Z,14.29
2019-05-01T09:33:30.883Z,14.48
2019-05-01T09:39:47.850Z,14.66
2019-05-01T09:45:45.270Z,14.78
2019-05-01T09:48:13.660Z,14.88
2019-05-01T10:04:25.387Z,15.38
2019-05-01T10:06:54.128Z,15.43
2019-05-01T10:09:23.208Z,15.44
2019-05-01T10:11:51.642Z,15.47
2019-05-01T10:14:39.244Z,15.50
2019-05-01T10:17:07.699Z,15.62
2019-05-01T10:19:36.096Z,15.74
2019-05-01T10:30:47.658Z,16.10
2019-05-01T10:36:24.353Z,16.10
2019-05-01T10:38:52.759Z,16.29
2019-05-01T10:41:21.167Z,16.43
2019-05-01T10:48:57.584Z,16.73
2019-05-01T10:51:27.568Z,16.85
2019-05-01T10:54:07.785Z,16.95
2019-05-01T10:56:36.195Z,17.04
2019-05-01T10:59:44.922Z,17.23
2019-05-01T11:02:32.705Z,17.35
2019-05-01T11:08:14.737Z,17.19
2019-05-01T11:13:16.785Z,17.38
2019-05-01T11:15:45.277Z,17.60
2019-05-01T11:18:32.993Z,17.72
2019-05-01T11:21:01.438Z,17.85
2019-05-01T11:23:29.837Z,17.96
2019-05-01T11:25:58.229Z,18.00
2019-05-01T11:28:45.935Z,17.96
2019-05-01T11:34:22.629Z,18.24
2019-05-01T11:37:29.477Z,18.42
2019-05-01T11:42:52.622Z,18.61
2019-05-01T11:45:21.029Z,18.59
2019-05-01T11:47:49.445Z,18.59
2019-05-01T11:52:52.112Z,18.80
2019-05-01T11:57:54.569Z,19.04
2019-05-01T12:01:02.996Z,19.09
2019-05-01T12:07:19.480Z,18.84
2019-05-01T12:09:47.878Z,18.89
2019-05-01T12:15:45.307Z,19.01
2019-05-01T12:18:13.711Z,19.11
2019-05-01T12:20:42.113Z,19.24
2019-05-01T12:23:10.554Z,19.42
2019-05-01T12:25:39.022Z,19.53
2019-05-01T12:28:26.792Z,19.51
2019-05-01T12:30:55.183Z,19.50
2019-05-01T12:33:23.586Z,19.63
2019-05-01T12:38:27.725Z,19.80
2019-05-01T12:41:15.247Z,19.87
2019-05-01T12:43:43.672Z,19.86
2019-05-01T12:54:33.448Z,20.03
2019-05-01T12:57:15.424Z,20.07
2019-05-01T12:59:43.845Z,20.15
2019-05-01T13:02:12.241Z,20.22
2019-05-01T13:04:40.644Z,20.12
2019-05-01T13:07:28.389Z,20.12
2019-05-01T13:10:16.040Z,20.09
2019-05-01T13:15:18.701Z,20.26
2019-05-01T13:20:21.546Z,20.62
2019-05-01T13:25:23.620Z,20.86
2019-05-01T13:28:11.161Z,20.94
2019-05-01T13:30:58.700Z,21.12
2019-05-01T13:33:27.115Z,21.18
2019-05-01T13:36:14.839Z,21.32
2019-05-01T13:41:36.755Z,21.29
2019-05-01T13:46:59.676Z,21.22
2019-05-01T13:49:28.093Z,21.26
2019-05-01T13:51:56.481Z,21.37
2019-05-01T13:57:18.501Z,21.56
2019-05-01T13:59:59.450Z,21.60
2019-05-01T14:02:27.851Z,21.68
2019-05-01T14:04:56.261Z,21.64
2019-05-01T14:07:24.755Z,21.58
2019-05-01T14:10:12.470Z,21.60
2019-05-01T14:12:40.956Z,21.62
2019-05-01T14:18:57.791Z,21.60
2019-05-01T14:21:45.323Z,21.65
2019-05-01T14:24:40.175Z,21.62
2019-05-01T14:27:08.582Z,21.61
2019-05-01T14:29:36.980Z,21.67
2019-05-01T14:32:24.597Z,21.74
2019-05-01T14:34:53.064Z,21.84
2019-05-01T14:37:29.409Z,21.90
2019-05-01T14:39:51.606Z,21.92
2019-05-01T14:42:20.005Z,21.96
2019-05-01T14:44:50.693Z,21.98
2019-05-01T14:49:52.503Z,22.05
2019-05-01T14:54:54.633Z,21.78
2019-05-01T14:57:23.133Z,21.60
2019-05-01T14:59:51.534Z,21.45
2019-05-01T15:02:19.929Z,21.40
2019-05-01T15:04:48.354Z,21.43
2019-05-01T15:07:16.820Z,21.26
2019-05-01T15:09:45.260Z,21.27
2019-05-01T15:17:46.280Z,21.21
2019-05-01T15:20:54.622Z,21.23
2019-05-01T15:23:23.040Z,21.37
2019-05-01T15:25:51.445Z,21.49
2019-05-01T15:28:19.847Z,21.39
2019-05-01T15:33:21.888Z,21.27
2019-05-01T15:35:50.314Z,21.19
2019-05-01T15:38:18.721Z,21.19
2019-05-01T15:41:06.268Z,21.24
2019-05-01T15:44:13.116Z,21.32
2019-05-01T15:49:15.263Z,21.55
2019-05-01T15:52:02.982Z,21.63
2019-05-01T15:54:31.413Z,21.60
2019-05-01T15:56:59.811Z,21.65
2019-05-01T16:02:01.807Z,21.74
2019-05-01T16:04:30.246Z,21.73
2019-05-01T16:06:58.647Z,21.79
2019-05-01T16:12:40.895Z,21.82
2019-05-01T16:15:49.218Z,21.63
2019-05-01T16:23:50.374Z,21.35
2019-05-01T16:28:53.348Z,21.26
2019-05-01T16:33:55.701Z,21.30
2019-05-01T16:36:24.128Z,21.32
2019-05-01T16:39:11.727Z,21.35
2019-05-01T16:44:29.228Z,21.21
2019-05-01T16:46:57.625Z,21.16
2019-05-01T16:49:26.039Z,21.16
2019-05-01T16:51:54.544Z,21.15
2019-05-01T16:54:22.940Z,21.14
2019-05-01T16:56:51.337Z,21.15
2019-05-01T16:59:59.670Z,21.13
2019-05-01T17:02:47.265Z,21.12
2019-05-01T17:05:34.902Z,21.09
2019-05-01T17:08:43.224Z,21.06
2019-05-01T17:19:35.862Z,20.78
2019-05-01T17:27:48.005Z,20.33
2019-05-01T17:30:56.361Z,20.22
2019-05-01T17:33:24.797Z,20.18
2019-05-01T17:35:53.197Z,20.09
2019-05-01T17:38:21.602Z,20.02
2019-05-01T17:41:09.514Z,19.96
2019-05-01T17:43:37.940Z,19.86
2019-05-01T17:46:10.796Z,19.70
2019-05-01T17:48:36.589Z,19.57
2019-05-01T17:51:46.363Z,19.44
2019-05-01T17:56:53.698Z,19.29
2019-05-01T17:59:58.909Z,19.22
2019-05-01T18:05:35.758Z,19.07
2019-05-01T18:13:27.060Z,18.79
2019-05-01T18:16:14.810Z,18.69
2019-05-01T18:19:23.127Z,18.60
2019-05-01T18:22:32.252Z,18.48
2019-05-01T18:25:19.253Z,18.28
2019-05-01T18:35:36.518Z,17.98
2019-05-01T18:41:18.833Z,17.48
2019-05-01T18:44:27.160Z,17.24
2019-05-01T18:47:14.794Z,17.09
2019-05-01T18:55:51.024Z,16.61
2019-05-01T18:58:19.434Z,16.40
2019-05-01T19:00:47.905Z,16.22
2019-05-01T19:03:16.344Z,16.12
2019-05-01T19:06:24.665Z,16.10
2019-05-01T19:11:27.531Z,16.01
2019-05-01T19:16:30.639Z,15.72
2019-05-01T19:22:33.671Z,15.72
2019-05-01T19:25:02.073Z,15.70
2019-05-01T19:28:10.507Z,15.67
2019-05-01T19:30:38.931Z,15.67
2019-05-01T19:33:47.369Z,15.66
2019-05-01T19:36:35.086Z,15.63
2019-05-01T19:44:32.260Z,15.47
2019-05-01T19:52:48.204Z,15.20
2019-05-01T19:55:16.674Z,15.02
2019-05-01T19:57:45.349Z,14.80
2019-05-01T20:00:53.791Z,14.68
2019-05-01T20:04:02.109Z,14.53
2019-05-01T20:09:56.415Z,14.21
2019-05-01T20:12:14.250Z,14.07
2019-05-01T20:14:42.654Z,13.97
2019-05-01T20:17:30.293Z,13.94
2019-05-01T20:19:58.708Z,13.86
2019-05-01T20:22:27.111Z,13.77
2019-05-01T20:24:55.543Z,13.76
2019-05-01T20:27:23.940Z,13.69
2019-05-01T20:29:52.412Z,13.63
2019-05-01T20:32:25.771Z,13.52
2019-05-01T20:34:52.764Z,13.46
2019-05-01T20:37:21.328Z,13.45
2019-05-01T20:39:49.928Z,13.41
2019-05-01T20:42:18.320Z,13.44
2019-05-01T20:44:46.732Z,13.50
2019-05-01T20:47:15.927Z,13.55
2019-05-01T20:49:44.367Z,13.57
2019-05-01T20:52:12.765Z,13.49
2019-05-01T20:54:41.336Z,13.42
2019-05-01T20:57:20.999Z,13.30
2019-05-01T20:59:44.464Z,13.11
2019-05-01T21:02:13.068Z,12.98
2019-05-01T21:04:48.868Z,12.91
2019-05-01T21:07:21.597Z,12.78
2019-05-01T21:09:56.815Z,12.73
2019-05-01T21:12:21.850Z,12.68
2019-05-01T21:14:51.097Z,12.59
2019-05-01T21:17:19.553Z,12.52
2019-05-01T21:19:47.944Z,12.46
2019-05-01T21:22:16.832Z,12.43
2019-05-01T21:24:45.221Z,12.38
2019-05-01T21:27:13.625Z,12.30
2019-05-01T21:29:42.045Z,12.20
2019-05-01T21:32:10.443Z,12.14
2019-05-01T21:34:38.832Z,12.08
2019-05-01T21:37:07.261Z,12.03
2019-05-01T21:39:35.683Z,11.98
2019-05-01T21:42:11.271Z,11.92
2019-05-01T21:44:34.804Z,11.92
2019-05-01T21:47:03.925Z,11.91
2019-05-01T21:49:33.274Z,11.91
2019-05-01T21:52:03.637Z,11.89
2019-05-01T21:54:32.033Z,11.90
2019-05-01T21:57:00.429Z,11.89
2019-05-01T21:59:28.850Z,11.87
2019-05-01T22:01:57.385Z,11.86
2019-05-01T22:04:27.805Z,11.85
2019-05-01T22:06:56.352Z,11.82
2019-05-01T22:09:25.905Z,11.78
2019-05-01T22:11:54.391Z,11.70
2019-05-01T22:14:40.985Z,11.67
2019-05-01T22:17:32.006Z,11.59
2019-05-01T22:19:57.456Z,11.55
2019-05-01T22:22:33.263Z,11.54
2019-05-01T22:25:03.344Z,11.47
2019-05-01T22:27:33.394Z,11.39
2019-05-01T22:30:05.555Z,11.35
2019-05-01T22:32:35.324Z,11.38
2019-05-01T22:35:06.903Z,11.42
2019-05-01T22:37:35.301Z,11.48
2019-05-01T22:40:12.828Z,11.51
2019-05-01T22:42:41.222Z,11.54
2019-05-01T22:45:19.396Z,11.54
2019-05-01T22:47:50.730Z,11.55
2019-05-01T22:50:18.850Z,11.55
2019-05-01T22:52:47.280Z,11.55
2019-05-01T22:55:20.352Z,11.54
2019-05-01T22:57:46.800Z,11.53
2019-05-01T23:00:22.500Z,11.49
2019-05-01T23:02:51.064Z,11.41
2019-05-01T23:05:23.129Z,11.32
2019-05-01T23:07:49.803Z,11.26
2019-05-01T23:10:18.984Z,11.24
2019-05-01T23:12:47.362Z,11.20
2019-05-01T23:15:24.064Z,11.15
2019-05-01T23:17:52.532Z,11.11
2019-05-01T23:20:21.102Z,11.13
2019-05-01T23:22:49.524Z,11.16
2019-05-01T23:25:18.132Z,11.07
2019-05-01T23:27:46.548Z,10.94
2019-05-01T23:30:17.188Z,10.84
2019-05-01T23:32:45.833Z,10.86
2019-05-01T23:35:14.290Z,10.90
2019-05-01T23:37:42.930Z,10.88
2019-05-01T23:40:15.533Z,10.86
2019-05-01T23:42:43.848Z,10.83
2019-05-01T23:45:13.193Z,10.82
2019-05-01T23:47:43.835Z,10.76
2019-05-01T23:50:12.420Z,10.70
2019-05-01T23:52:40.882Z,10.61
2019-05-01T23:55:09.578Z,10.57
2019-05-01T23:57:37.973Z,10.54
